sensor_id;sensor_type;location;lat;lon;timestamp;P1;durP1;ratioP1;P2;durP2;ratioP2
26965;SDS011;14522;52.068;4.414;2023-08-06T00:00:39;3.03;;;1.90;;
26965;SDS011;14522;52.068;4.414;2023-08-06T00:03:06;3.20;;;2.60;;
26965;SDS011;14522;52.068;4.414;2023-08-06T00:05:33;2.45;;;2.10;;
26965;SDS011;14522;52.068;4.414;2023-08-06T00:07:59;2.50;;;2.30;;
26965;SDS011;14522;52.068;4.414;2023-08-06T00:10:26;4.90;;;2.47;;
26965;SDS011;14522;52.068;4.414;2023-08-06T00:12:52;5.00;;;2.38;;
26965;SDS011;14522;52.068;4.414;2023-08-06T00:15:18;5.40;;;2.40;;
26965;SDS011;14522;52.068;4.414;2023-08-06T00:17:45;4.30;;;2.38;;
26965;SDS011;14522;52.068;4.414;2023-08-06T00:20:11;3.00;;;2.30;;
26965;SDS011;14522;52.068;4.414;2023-08-06T00:22:38;4.60;;;2.03;;
26965;SDS011;14522;52.068;4.414;2023-08-06T00:25:05;3.83;;;2.67;;
26965;SDS011;14522;52.068;4.414;2023-08-06T00:27:31;4.47;;;2.42;;
26965;SDS011;14522;52.068;4.414;2023-08-06T00:30:01;4.05;;;3.00;;
26965;SDS011;14522;52.068;4.414;2023-08-06T00:32:27;3.42;;;2.80;;
26965;SDS011;14522;52.068;4.414;2023-08-06T00:34:54;4.75;;;3.15;;
26965;SDS011;14522;52.068;4.414;2023-08-06T00:37:20;4.05;;;2.25;;
26965;SDS011;14522;52.068;4.414;2023-08-06T00:39:49;4.22;;;2.90;;
26965;SDS011;14522;52.068;4.414;2023-08-06T00:42:15;3.92;;;2.53;;
26965;SDS011;14522;52.068;4.414;2023-08-06T00:44:46;4.32;;;3.17;;
26965;SDS011;14522;52.068;4.414;2023-08-06T00:47:13;4.93;;;3.03;;
26965;SDS011;14522;52.068;4.414;2023-08-06T00:49:39;5.15;;;2.03;;
26965;SDS011;14522;52.068;4.414;2023-08-06T00:52:06;4.07;;;2.67;;
26965;SDS011;14522;52.068;4.414;2023-08-06T00:54:33;4.43;;;2.55;;
26965;SDS011;14522;52.068;4.414;2023-08-06T00:57:01;4.80;;;2.65;;
26965;SDS011;14522;52.068;4.414;2023-08-06T00:59:29;5.00;;;2.78;;
26965;SDS011;14522;52.068;4.414;2023-08-06T01:01:56;3.55;;;2.63;;
26965;SDS011;14522;52.068;4.414;2023-08-06T01:04:23;6.32;;;2.92;;
26965;SDS011;14522;52.068;4.414;2023-08-06T01:06:56;4.22;;;2.90;;
26965;SDS011;14522;52.068;4.414;2023-08-06T01:09:31;5.18;;;3.20;;
26965;SDS011;14522;52.068;4.414;2023-08-06T01:12:13;3.75;;;2.53;;
26965;SDS011;14522;52.068;4.414;2023-08-06T01:14:57;4.03;;;3.00;;
26965;SDS011;14522;52.068;4.414;2023-08-06T01:17:26;8.63;;;3.10;;
26965;SDS011;14522;52.068;4.414;2023-08-06T01:19:53;4.93;;;2.30;;
26965;SDS011;14522;52.068;4.414;2023-08-06T01:22:19;2.67;;;1.73;;
26965;SDS011;14522;52.068;4.414;2023-08-06T01:24:46;4.57;;;2.88;;
26965;SDS011;14522;52.068;4.414;2023-08-06T01:27:19;3.72;;;2.95;;
26965;SDS011;14522;52.068;4.414;2023-08-06T01:29:48;3.05;;;2.42;;
26965;SDS011;14522;52.068;4.414;2023-08-06T01:32:18;3.22;;;2.25;;
26965;SDS011;14522;52.068;4.414;2023-08-06T01:34:46;3.70;;;2.63;;
26965;SDS011;14522;52.068;4.414;2023-08-06T01:37:14;3.92;;;2.85;;
26965;SDS011;14522;52.068;4.414;2023-08-06T01:39:43;5.07;;;2.97;;
26965;SDS011;14522;52.068;4.414;2023-08-06T01:42:10;4.07;;;2.45;;
26965;SDS011;14522;52.068;4.414;2023-08-06T01:44:36;2.50;;;1.67;;
26965;SDS011;14522;52.068;4.414;2023-08-06T01:47:02;2.95;;;2.22;;
26965;SDS011;14522;52.068;4.414;2023-08-06T01:49:29;4.80;;;2.60;;
26965;SDS011;14522;52.068;4.414;2023-08-06T01:51:56;3.78;;;2.30;;
26965;SDS011;14522;52.068;4.414;2023-08-06T01:54:22;3.97;;;2.47;;
26965;SDS011;14522;52.068;4.414;2023-08-06T01:56:49;5.07;;;2.65;;
26965;SDS011;14522;52.068;4.414;2023-08-06T01:59:15;3.95;;;2.05;;
26965;SDS011;14522;52.068;4.414;2023-08-06T02:01:41;2.50;;;1.83;;
26965;SDS011;14522;52.068;4.414;2023-08-06T02:04:08;5.85;;;2.42;;
26965;SDS011;14522;52.068;4.414;2023-08-06T02:06:34;3.60;;;2.40;;
26965;SDS011;14522;52.068;4.414;2023-08-06T02:09:01;3.10;;;1.58;;
26965;SDS011;14522;52.068;4.414;2023-08-06T02:11:27;2.70;;;1.50;;
26965;SDS011;14522;52.068;4.414;2023-08-06T02:13:54;1.98;;;1.00;;
26965;SDS011;14522;52.068;4.414;2023-08-06T02:16:20;1.30;;;0.80;;
26965;SDS011;14522;52.068;4.414;2023-08-06T02:18:47;1.95;;;1.17;;
26965;SDS011;14522;52.068;4.414;2023-08-06T02:21:13;0.88;;;0.60;;
26965;SDS011;14522;52.068;4.414;2023-08-06T02:23:40;0.63;;;0.47;;
26965;SDS011;14522;52.068;4.414;2023-08-06T02:26:06;0.90;;;0.50;;
26965;SDS011;14522;52.068;4.414;2023-08-06T02:28:32;2.10;;;0.43;;
26965;SDS011;14522;52.068;4.414;2023-08-06T02:30:59;2.05;;;0.40;;
26965;SDS011;14522;52.068;4.414;2023-08-06T02:33:26;0.70;;;0.35;;
26965;SDS011;14522;52.068;4.414;2023-08-06T02:35:58;1.70;;;0.40;;
26965;SDS011;14522;52.068;4.414;2023-08-06T02:38:25;0.80;;;0.30;;
26965;SDS011;14522;52.068;4.414;2023-08-06T02:40:51;0.50;;;0.22;;
26965;SDS011;14522;52.068;4.414;2023-08-06T02:43:18;1.02;;;0.32;;
26965;SDS011;14522;52.068;4.414;2023-08-06T02:45:44;1.25;;;0.30;;
26965;SDS011;14522;52.068;4.414;2023-08-06T02:48:11;0.47;;;0.30;;
26965;SDS011;14522;52.068;4.414;2023-08-06T02:50:40;0.90;;;0.50;;
26965;SDS011;14522;52.068;4.414;2023-08-06T02:53:08;0.63;;;0.32;;
26965;SDS011;14522;52.068;4.414;2023-08-06T02:55:34;0.63;;;0.30;;
26965;SDS011;14522;52.068;4.414;2023-08-06T02:58:01;1.30;;;0.50;;
26965;SDS011;14522;52.068;4.414;2023-08-06T03:00:28;0.75;;;0.57;;
26965;SDS011;14522;52.068;4.414;2023-08-06T03:02:54;1.35;;;0.73;;
26965;SDS011;14522;52.068;4.414;2023-08-06T03:05:21;4.70;;;1.48;;
26965;SDS011;14522;52.068;4.414;2023-08-06T03:07:47;1.50;;;1.33;;
26965;SDS011;14522;52.068;4.414;2023-08-06T03:10:14;3.75;;;2.28;;
26965;SDS011;14522;52.068;4.414;2023-08-06T03:12:40;4.10;;;2.50;;
26965;SDS011;14522;52.068;4.414;2023-08-06T03:15:07;3.88;;;2.63;;
26965;SDS011;14522;52.068;4.414;2023-08-06T03:17:33;2.83;;;2.33;;
26965;SDS011;14522;52.068;4.414;2023-08-06T03:20:00;3.33;;;2.63;;
26965;SDS011;14522;52.068;4.414;2023-08-06T03:22:26;3.30;;;1.48;;
26965;SDS011;14522;52.068;4.414;2023-08-06T03:24:53;3.17;;;1.55;;
26965;SDS011;14522;52.068;4.414;2023-08-06T03:27:19;2.80;;;1.67;;
26965;SDS011;14522;52.068;4.414;2023-08-06T03:29:48;4.25;;;1.95;;
26965;SDS011;14522;52.068;4.414;2023-08-06T03:32:14;4.28;;;2.10;;
26965;SDS011;14522;52.068;4.414;2023-08-06T03:34:41;3.22;;;2.15;;
26965;SDS011;14522;52.068;4.414;2023-08-06T03:37:07;2.83;;;2.35;;
26965;SDS011;14522;52.068;4.414;2023-08-06T03:39:33;6.07;;;2.45;;
26965;SDS011;14522;52.068;4.414;2023-08-06T03:42:00;5.03;;;1.75;;
26965;SDS011;14522;52.068;4.414;2023-08-06T03:44:26;3.20;;;1.40;;
26965;SDS011;14522;52.068;4.414;2023-08-06T03:46:54;3.05;;;1.40;;
26965;SDS011;14522;52.068;4.414;2023-08-06T03:49:21;2.42;;;1.38;;
26965;SDS011;14522;52.068;4.414;2023-08-06T03:51:47;3.28;;;1.40;;
26965;SDS011;14522;52.068;4.414;2023-08-06T03:54:13;4.28;;;1.25;;
26965;SDS011;14522;52.068;4.414;2023-08-06T03:56:40;4.20;;;1.10;;
26965;SDS011;14522;52.068;4.414;2023-08-06T03:59:07;5.82;;;1.40;;
26965;SDS011;14522;52.068;4.414;2023-08-06T04:01:34;4.45;;;1.38;;
26965;SDS011;14522;52.068;4.414;2023-08-06T04:04:00;3.67;;;1.27;;
26965;SDS011;14522;52.068;4.414;2023-08-06T04:06:26;5.63;;;1.30;;
26965;SDS011;14522;52.068;4.414;2023-08-06T04:08:53;3.53;;;1.15;;
26965;SDS011;14522;52.068;4.414;2023-08-06T04:11:19;4.78;;;1.38;;
26965;SDS011;14522;52.068;4.414;2023-08-06T04:13:46;3.88;;;1.10;;
26965;SDS011;14522;52.068;4.414;2023-08-06T04:16:12;9.25;;;1.80;;
26965;SDS011;14522;52.068;4.414;2023-08-06T04:18:41;4.15;;;1.33;;
26965;SDS011;14522;52.068;4.414;2023-08-06T04:21:08;2.97;;;1.30;;
26965;SDS011;14522;52.068;4.414;2023-08-06T04:23:35;3.63;;;1.20;;
26965;SDS011;14522;52.068;4.414;2023-08-06T04:26:01;4.20;;;1.23;;
26965;SDS011;14522;52.068;4.414;2023-08-06T04:28:28;2.03;;;1.42;;
26965;SDS011;14522;52.068;4.414;2023-08-06T04:30:54;3.00;;;1.23;;
26965;SDS011;14522;52.068;4.414;2023-08-06T04:33:21;2.50;;;1.40;;
26965;SDS011;14522;52.068;4.414;2023-08-06T04:35:47;2.33;;;1.20;;
26965;SDS011;14522;52.068;4.414;2023-08-06T04:38:13;4.57;;;1.27;;
26965;SDS011;14522;52.068;4.414;2023-08-06T04:40:40;1.90;;;1.00;;
26965;SDS011;14522;52.068;4.414;2023-08-06T04:43:07;4.13;;;1.50;;
26965;SDS011;14522;52.068;4.414;2023-08-06T04:45:33;3.63;;;1.60;;
26965;SDS011;14522;52.068;4.414;2023-08-06T04:47:59;5.47;;;1.60;;
26965;SDS011;14522;52.068;4.414;2023-08-06T04:50:29;10.23;;;1.52;;
26965;SDS011;14522;52.068;4.414;2023-08-06T04:52:55;3.75;;;1.60;;
26965;SDS011;14522;52.068;4.414;2023-08-06T04:55:22;3.92;;;1.40;;
26965;SDS011;14522;52.068;4.414;2023-08-06T04:57:48;3.67;;;1.63;;
26965;SDS011;14522;52.068;4.414;2023-08-06T05:00:14;4.28;;;1.27;;
26965;SDS011;14522;52.068;4.414;2023-08-06T05:02:41;3.33;;;1.50;;
26965;SDS011;14522;52.068;4.414;2023-08-06T05:05:07;4.00;;;1.17;;
26965;SDS011;14522;52.068;4.414;2023-08-06T05:07:34;4.18;;;1.48;;
26965;SDS011;14522;52.068;4.414;2023-08-06T05:10:00;4.07;;;1.45;;
26965;SDS011;14522;52.068;4.414;2023-08-06T05:12:27;4.93;;;1.38;;
26965;SDS011;14522;52.068;4.414;2023-08-06T05:14:53;2.85;;;1.70;;
26965;SDS011;14522;52.068;4.414;2023-08-06T05:17:20;5.28;;;1.80;;
26965;SDS011;14522;52.068;4.414;2023-08-06T05:19:46;7.38;;;1.38;;
26965;SDS011;14522;52.068;4.414;2023-08-06T05:22:12;4.43;;;1.45;;
26965;SDS011;14522;52.068;4.414;2023-08-06T05:24:39;5.32;;;1.83;;
26965;SDS011;14522;52.068;4.414;2023-08-06T05:27:05;2.95;;;1.35;;
26965;SDS011;14522;52.068;4.414;2023-08-06T05:29:32;5.72;;;1.60;;
26965;SDS011;14522;52.068;4.414;2023-08-06T05:31:58;3.88;;;1.40;;
26965;SDS011;14522;52.068;4.414;2023-08-06T05:34:24;4.43;;;1.20;;
26965;SDS011;14522;52.068;4.414;2023-08-06T05:36:51;3.25;;;1.00;;
26965;SDS011;14522;52.068;4.414;2023-08-06T05:39:18;3.28;;;1.38;;
26965;SDS011;14522;52.068;4.414;2023-08-06T05:41:45;5.70;;;1.08;;
26965;SDS011;14522;52.068;4.414;2023-08-06T05:44:11;3.55;;;1.00;;
26965;SDS011;14522;52.068;4.414;2023-08-06T05:46:38;2.63;;;1.00;;
26965;SDS011;14522;52.068;4.414;2023-08-06T05:49:04;3.78;;;1.20;;
26965;SDS011;14522;52.068;4.414;2023-08-06T05:51:31;2.78;;;1.05;;
26965;SDS011;14522;52.068;4.414;2023-08-06T05:53:58;4.00;;;1.00;;
26965;SDS011;14522;52.068;4.414;2023-08-06T05:56:25;4.55;;;0.90;;
26965;SDS011;14522;52.068;4.414;2023-08-06T05:58:52;3.17;;;0.95;;
26965;SDS011;14522;52.068;4.414;2023-08-06T06:01:19;7.38;;;1.00;;
26965;SDS011;14522;52.068;4.414;2023-08-06T06:03:45;1.23;;;0.63;;
26965;SDS011;14522;52.068;4.414;2023-08-06T06:06:12;3.47;;;0.60;;
26965;SDS011;14522;52.068;4.414;2023-08-06T06:08:42;1.60;;;0.68;;
26965;SDS011;14522;52.068;4.414;2023-08-06T06:11:08;4.68;;;0.70;;
26965;SDS011;14522;52.068;4.414;2023-08-06T06:13:35;3.88;;;0.73;;
26965;SDS011;14522;52.068;4.414;2023-08-06T06:16:01;1.17;;;0.60;;
26965;SDS011;14522;52.068;4.414;2023-08-06T06:18:27;2.22;;;0.50;;
26965;SDS011;14522;52.068;4.414;2023-08-06T06:20:54;2.15;;;0.55;;
26965;SDS011;14522;52.068;4.414;2023-08-06T06:23:20;2.42;;;0.60;;
26965;SDS011;14522;52.068;4.414;2023-08-06T06:25:48;5.32;;;1.00;;
26965;SDS011;14522;52.068;4.414;2023-08-06T06:28:14;3.38;;;0.70;;
26965;SDS011;14522;52.068;4.414;2023-08-06T06:30:41;0.75;;;0.60;;
26965;SDS011;14522;52.068;4.414;2023-08-06T06:33:08;4.10;;;0.75;;
26965;SDS011;14522;52.068;4.414;2023-08-06T06:35:34;3.28;;;0.60;;
26965;SDS011;14522;52.068;4.414;2023-08-06T06:38:01;0.70;;;0.60;;
26965;SDS011;14522;52.068;4.414;2023-08-06T06:40:28;2.13;;;0.75;;
26965;SDS011;14522;52.068;4.414;2023-08-06T06:42:55;3.67;;;0.60;;
26965;SDS011;14522;52.068;4.414;2023-08-06T06:45:21;1.33;;;0.60;;
26965;SDS011;14522;52.068;4.414;2023-08-06T06:47:48;2.88;;;0.60;;
26965;SDS011;14522;52.068;4.414;2023-08-06T06:50:14;1.08;;;0.90;;
26965;SDS011;14522;52.068;4.414;2023-08-06T06:52:41;9.55;;;1.23;;
26965;SDS011;14522;52.068;4.414;2023-08-06T06:55:07;1.33;;;0.65;;
26965;SDS011;14522;52.068;4.414;2023-08-06T06:57:34;5.32;;;1.00;;
26965;SDS011;14522;52.068;4.414;2023-08-06T07:00:00;2.72;;;0.88;;
26965;SDS011;14522;52.068;4.414;2023-08-06T07:02:28;1.77;;;0.70;;
26965;SDS011;14522;52.068;4.414;2023-08-06T07:04:55;4.80;;;0.65;;
26965;SDS011;14522;52.068;4.414;2023-08-06T07:07:21;2.55;;;1.00;;
26965;SDS011;14522;52.068;4.414;2023-08-06T07:09:48;4.10;;;1.20;;
26965;SDS011;14522;52.068;4.414;2023-08-06T07:12:14;3.97;;;1.20;;
26965;SDS011;14522;52.068;4.414;2023-08-06T07:14:41;4.05;;;2.13;;
26965;SDS011;14522;52.068;4.414;2023-08-06T07:17:07;8.30;;;2.28;;
26965;SDS011;14522;52.068;4.414;2023-08-06T07:19:33;5.05;;;1.08;;
26965;SDS011;14522;52.068;4.414;2023-08-06T07:22:00;2.85;;;1.02;;
26965;SDS011;14522;52.068;4.414;2023-08-06T07:24:26;2.90;;;1.38;;
26965;SDS011;14522;52.068;4.414;2023-08-06T07:26:53;1.90;;;0.80;;
26965;SDS011;14522;52.068;4.414;2023-08-06T07:29:19;6.10;;;1.48;;
26965;SDS011;14522;52.068;4.414;2023-08-06T07:31:47;4.78;;;1.08;;
26965;SDS011;14522;52.068;4.414;2023-08-06T07:34:15;2.47;;;1.27;;
26965;SDS011;14522;52.068;4.414;2023-08-06T07:36:45;2.90;;;0.95;;
26965;SDS011;14522;52.068;4.414;2023-08-06T07:39:12;3.65;;;1.10;;
26965;SDS011;14522;52.068;4.414;2023-08-06T07:41:38;2.03;;;1.20;;
26965;SDS011;14522;52.068;4.414;2023-08-06T07:44:05;2.80;;;1.05;;
26965;SDS011;14522;52.068;4.414;2023-08-06T07:46:31;3.20;;;1.27;;
26965;SDS011;14522;52.068;4.414;2023-08-06T07:48:58;5.38;;;1.23;;
26965;SDS011;14522;52.068;4.414;2023-08-06T07:51:24;3.97;;;0.90;;
26965;SDS011;14522;52.068;4.414;2023-08-06T07:53:51;5.63;;;0.93;;
26965;SDS011;14522;52.068;4.414;2023-08-06T07:56:17;2.15;;;1.10;;
26965;SDS011;14522;52.068;4.414;2023-08-06T07:58:44;2.92;;;1.00;;
26965;SDS011;14522;52.068;4.414;2023-08-06T08:01:10;5.38;;;1.23;;
26965;SDS011;14522;52.068;4.414;2023-08-06T08:03:37;3.10;;;1.10;;
26965;SDS011;14522;52.068;4.414;2023-08-06T08:06:03;4.03;;;1.27;;
26965;SDS011;14522;52.068;4.414;2023-08-06T08:08:30;4.88;;;1.35;;
26965;SDS011;14522;52.068;4.414;2023-08-06T08:10:56;2.35;;;1.00;;
26965;SDS011;14522;52.068;4.414;2023-08-06T08:13:25;2.35;;;1.27;;
26965;SDS011;14522;52.068;4.414;2023-08-06T08:15:56;4.15;;;1.30;;
26965;SDS011;14522;52.068;4.414;2023-08-06T08:18:22;3.92;;;1.02;;
26965;SDS011;14522;52.068;4.414;2023-08-06T08:20:49;1.50;;;0.93;;
26965;SDS011;14522;52.068;4.414;2023-08-06T08:23:16;2.75;;;0.85;;
26965;SDS011;14522;52.068;4.414;2023-08-06T08:25:42;1.75;;;0.75;;
26965;SDS011;14522;52.068;4.414;2023-08-06T08:28:08;1.80;;;0.90;;
26965;SDS011;14522;52.068;4.414;2023-08-06T08:30:35;3.13;;;0.80;;
26965;SDS011;14522;52.068;4.414;2023-08-06T08:33:01;3.97;;;0.85;;
26965;SDS011;14522;52.068;4.414;2023-08-06T08:35:28;2.63;;;0.90;;
26965;SDS011;14522;52.068;4.414;2023-08-06T08:37:54;3.25;;;1.02;;
26965;SDS011;14522;52.068;4.414;2023-08-06T08:40:21;2.50;;;0.90;;
26965;SDS011;14522;52.068;4.414;2023-08-06T08:42:48;4.20;;;0.80;;
26965;SDS011;14522;52.068;4.414;2023-08-06T08:45:15;4.80;;;1.05;;
26965;SDS011;14522;52.068;4.414;2023-08-06T08:47:41;2.92;;;0.82;;
26965;SDS011;14522;52.068;4.414;2023-08-06T08:50:09;1.73;;;0.85;;
26965;SDS011;14522;52.068;4.414;2023-08-06T08:52:38;1.98;;;1.02;;
26965;SDS011;14522;52.068;4.414;2023-08-06T08:55:04;3.63;;;0.95;;
26965;SDS011;14522;52.068;4.414;2023-08-06T08:57:31;2.65;;;1.55;;
26965;SDS011;14522;52.068;4.414;2023-08-06T08:59:57;3.05;;;0.98;;
26965;SDS011;14522;52.068;4.414;2023-08-06T09:02:25;3.30;;;0.93;;
26965;SDS011;14522;52.068;4.414;2023-08-06T09:04:52;3.30;;;1.10;;
26965;SDS011;14522;52.068;4.414;2023-08-06T09:07:19;3.60;;;1.23;;
26965;SDS011;14522;52.068;4.414;2023-08-06T09:09:48;1.45;;;0.88;;
26965;SDS011;14522;52.068;4.414;2023-08-06T09:12:15;2.10;;;1.20;;
26965;SDS011;14522;52.068;4.414;2023-08-06T09:14:42;3.78;;;0.90;;
26965;SDS011;14522;52.068;4.414;2023-08-06T09:17:09;3.92;;;1.25;;
26965;SDS011;14522;52.068;4.414;2023-08-06T09:19:37;2.05;;;0.95;;
26965;SDS011;14522;52.068;4.414;2023-08-06T09:22:03;4.43;;;1.17;;
26965;SDS011;14522;52.068;4.414;2023-08-06T09:24:31;2.65;;;1.02;;
26965;SDS011;14522;52.068;4.414;2023-08-06T09:26:58;1.25;;;0.80;;
26965;SDS011;14522;52.068;4.414;2023-08-06T09:29:30;2.10;;;0.80;;
26965;SDS011;14522;52.068;4.414;2023-08-06T09:31:57;1.90;;;0.80;;
26965;SDS011;14522;52.068;4.414;2023-08-06T09:34:24;3.47;;;0.90;;
26965;SDS011;14522;52.068;4.414;2023-08-06T09:36:52;2.53;;;0.82;;
26965;SDS011;14522;52.068;4.414;2023-08-06T09:39:18;1.85;;;0.90;;
26965;SDS011;14522;52.068;4.414;2023-08-06T09:41:46;3.20;;;0.80;;
26965;SDS011;14522;52.068;4.414;2023-08-06T09:44:18;2.08;;;0.73;;
26965;SDS011;14522;52.068;4.414;2023-08-06T09:46:51;1.30;;;0.73;;
26965;SDS011;14522;52.068;4.414;2023-08-06T09:49:18;1.90;;;0.80;;
26965;SDS011;14522;52.068;4.414;2023-08-06T09:51:48;1.70;;;0.70;;
26965;SDS011;14522;52.068;4.414;2023-08-06T09:54:18;1.27;;;0.70;;
26965;SDS011;14522;52.068;4.414;2023-08-06T09:56:53;1.13;;;0.77;;
26965;SDS011;14522;52.068;4.414;2023-08-06T09:59:20;1.17;;;0.60;;
26965;SDS011;14522;52.068;4.414;2023-08-06T10:01:47;2.17;;;0.70;;
26965;SDS011;14522;52.068;4.414;2023-08-06T10:04:14;6.38;;;1.02;;
26965;SDS011;14522;52.068;4.414;2023-08-06T10:06:50;1.65;;;0.65;;
26965;SDS011;14522;52.068;4.414;2023-08-06T10:09:16;1.38;;;0.82;;
26965;SDS011;14522;52.068;4.414;2023-08-06T10:11:44;2.55;;;0.80;;
26965;SDS011;14522;52.068;4.414;2023-08-06T10:14:22;5.97;;;1.08;;
26965;SDS011;14522;52.068;4.414;2023-08-06T10:16:49;2.15;;;0.80;;
26965;SDS011;14522;52.068;4.414;2023-08-06T10:19:16;2.03;;;0.80;;
26965;SDS011;14522;52.068;4.414;2023-08-06T10:27:34;2.30;;;0.90;;
26965;SDS011;14522;52.068;4.414;2023-08-06T10:30:43;5.13;;;1.17;;
26965;SDS011;14522;52.068;4.414;2023-08-06T10:32:50;2.67;;;0.85;;
26965;SDS011;14522;52.068;4.414;2023-08-06T10:35:37;3.15;;;1.33;;
26965;SDS011;14522;52.068;4.414;2023-08-06T10:40:33;3.47;;;0.82;;
26965;SDS011;14522;52.068;4.414;2023-08-06T10:43:00;5.72;;;0.80;;
26965;SDS011;14522;52.068;4.414;2023-08-06T10:45:27;2.35;;;0.77;;
26965;SDS011;14522;52.068;4.414;2023-08-06T10:47:55;2.03;;;0.75;;
26965;SDS011;14522;52.068;4.414;2023-08-06T10:50:25;2.30;;;0.63;;
26965;SDS011;14522;52.068;4.414;2023-08-06T10:52:51;6.07;;;1.08;;
26965;SDS011;14522;52.068;4.414;2023-08-06T10:55:28;1.88;;;0.90;;
26965;SDS011;14522;52.068;4.414;2023-08-06T10:57:55;2.63;;;0.93;;
26965;SDS011;14522;52.068;4.414;2023-08-06T11:00:22;1.42;;;0.80;;
26965;SDS011;14522;52.068;4.414;2023-08-06T11:02:50;2.55;;;0.80;;
26965;SDS011;14522;52.068;4.414;2023-08-06T11:05:17;1.52;;;0.60;;
26965;SDS011;14522;52.068;4.414;2023-08-06T11:07:44;2.20;;;0.93;;
26965;SDS011;14522;52.068;4.414;2023-08-06T11:10:11;4.70;;;1.25;;
26965;SDS011;14522;52.068;4.414;2023-08-06T11:12:38;1.95;;;0.80;;
26965;SDS011;14522;52.068;4.414;2023-08-06T11:15:05;2.67;;;0.75;;
26965;SDS011;14522;52.068;4.414;2023-08-06T11:17:32;1.42;;;0.75;;
26965;SDS011;14522;52.068;4.414;2023-08-06T11:20:02;2.17;;;0.93;;
26965;SDS011;14522;52.068;4.414;2023-08-06T11:22:29;2.05;;;0.60;;
26965;SDS011;14522;52.068;4.414;2023-08-06T11:24:55;2.08;;;0.80;;
26965;SDS011;14522;52.068;4.414;2023-08-06T11:27:22;1.40;;;0.55;;
26965;SDS011;14522;52.068;4.414;2023-08-06T11:29:48;1.13;;;0.60;;
26965;SDS011;14522;52.068;4.414;2023-08-06T11:32:15;1.92;;;0.95;;
26965;SDS011;14522;52.068;4.414;2023-08-06T11:34:43;4.00;;;0.70;;
26965;SDS011;14522;52.068;4.414;2023-08-06T11:37:10;2.80;;;0.75;;
26965;SDS011;14522;52.068;4.414;2023-08-06T11:39:37;1.55;;;0.60;;
26965;SDS011;14522;52.068;4.414;2023-08-06T11:42:06;1.40;;;0.50;;
26965;SDS011;14522;52.068;4.414;2023-08-06T11:44:36;0.55;;;0.40;;
26965;SDS011;14522;52.068;4.414;2023-08-06T11:47:03;1.27;;;0.40;;
26965;SDS011;14522;52.068;4.414;2023-08-06T11:49:40;1.40;;;0.60;;
26965;SDS011;14522;52.068;4.414;2023-08-06T11:52:29;3.63;;;1.08;;
26965;SDS011;14522;52.068;4.414;2023-08-06T11:57:28;2.17;;;0.65;;
26965;SDS011;14522;52.068;4.414;2023-08-06T11:59:55;2.28;;;0.60;;
26965;SDS011;14522;52.068;4.414;2023-08-06T12:02:21;1.95;;;0.80;;
26965;SDS011;14522;52.068;4.414;2023-08-06T12:07:28;2.25;;;0.45;;
26965;SDS011;14522;52.068;4.414;2023-08-06T12:09:54;0.45;;;0.20;;
26965;SDS011;14522;52.068;4.414;2023-08-06T12:12:21;2.75;;;0.50;;
26965;SDS011;14522;52.068;4.414;2023-08-06T12:14:47;3.33;;;0.40;;
26965;SDS011;14522;52.068;4.414;2023-08-06T12:17:14;3.55;;;0.43;;
26965;SDS011;14522;52.068;4.414;2023-08-06T12:19:40;1.00;;;0.47;;
26965;SDS011;14522;52.068;4.414;2023-08-06T12:22:06;2.53;;;0.45;;
26965;SDS011;14522;52.068;4.414;2023-08-06T12:24:33;0.77;;;0.45;;
26965;SDS011;14522;52.068;4.414;2023-08-06T12:27:00;0.85;;;0.30;;
26965;SDS011;14522;52.068;4.414;2023-08-06T12:29:28;1.05;;;0.25;;
26965;SDS011;14522;52.068;4.414;2023-08-06T12:31:54;1.85;;;0.30;;
26965;SDS011;14522;52.068;4.414;2023-08-06T12:34:21;4.50;;;0.50;;
26965;SDS011;14522;52.068;4.414;2023-08-06T12:36:52;3.35;;;0.52;;
26965;SDS011;14522;52.068;4.414;2023-08-06T12:39:18;5.00;;;0.40;;
26965;SDS011;14522;52.068;4.414;2023-08-06T12:41:45;1.88;;;0.40;;
26965;SDS011;14522;52.068;4.414;2023-08-06T12:44:12;2.38;;;0.35;;
26965;SDS011;14522;52.068;4.414;2023-08-06T12:46:38;1.48;;;0.20;;
26965;SDS011;14522;52.068;4.414;2023-08-06T12:49:05;2.58;;;0.30;;
26965;SDS011;14522;52.068;4.414;2023-08-06T12:51:32;0.75;;;0.30;;
26965;SDS011;14522;52.068;4.414;2023-08-06T12:54:00;1.65;;;0.28;;
26965;SDS011;14522;52.068;4.414;2023-08-06T12:56:26;4.18;;;0.40;;
26965;SDS011;14522;52.068;4.414;2023-08-06T12:58:52;0.63;;;0.30;;
26965;SDS011;14522;52.068;4.414;2023-08-06T13:01:19;1.92;;;0.40;;
26965;SDS011;14522;52.068;4.414;2023-08-06T13:03:45;1.33;;;0.30;;
26965;SDS011;14522;52.068;4.414;2023-08-06T13:06:12;2.13;;;0.50;;
26965;SDS011;14522;52.068;4.414;2023-08-06T13:08:38;3.45;;;0.30;;
26965;SDS011;14522;52.068;4.414;2023-08-06T13:11:05;5.90;;;0.73;;
26965;SDS011;14522;52.068;4.414;2023-08-06T13:13:31;0.95;;;0.28;;
26965;SDS011;14522;52.068;4.414;2023-08-06T13:15:57;4.32;;;0.45;;
26965;SDS011;14522;52.068;4.414;2023-08-06T13:18:24;3.58;;;0.60;;
26965;SDS011;14522;52.068;4.414;2023-08-06T13:20:52;3.33;;;0.47;;
26965;SDS011;14522;52.068;4.414;2023-08-06T13:23:20;3.75;;;0.70;;
26965;SDS011;14522;52.068;4.414;2023-08-06T13:25:47;4.22;;;0.93;;
26965;SDS011;14522;52.068;4.414;2023-08-06T13:28:13;5.90;;;1.02;;
26965;SDS011;14522;52.068;4.414;2023-08-06T13:30:40;5.28;;;0.80;;
26965;SDS011;14522;52.068;4.414;2023-08-06T13:33:08;5.35;;;0.90;;
26965;SDS011;14522;52.068;4.414;2023-08-06T13:35:35;6.43;;;1.15;;
26965;SDS011;14522;52.068;4.414;2023-08-06T13:38:01;7.00;;;1.08;;
26965;SDS011;14522;52.068;4.414;2023-08-06T13:40:29;1.77;;;0.60;;
26965;SDS011;14522;52.068;4.414;2023-08-06T13:42:56;5.43;;;0.57;;
26965;SDS011;14522;52.068;4.414;2023-08-06T13:45:23;4.70;;;0.93;;
26965;SDS011;14522;52.068;4.414;2023-08-06T13:47:50;1.75;;;0.35;;
26965;SDS011;14522;52.068;4.414;2023-08-06T13:50:16;5.43;;;0.85;;
26965;SDS011;14522;52.068;4.414;2023-08-06T13:52:43;6.90;;;1.20;;
26965;SDS011;14522;52.068;4.414;2023-08-06T13:55:09;2.88;;;0.40;;
26965;SDS011;14522;52.068;4.414;2023-08-06T13:57:35;4.97;;;0.88;;
26965;SDS011;14522;52.068;4.414;2023-08-06T14:00:02;3.13;;;0.50;;
26965;SDS011;14522;52.068;4.414;2023-08-06T14:02:29;5.25;;;0.80;;
26965;SDS011;14522;52.068;4.414;2023-08-06T14:04:55;6.13;;;0.90;;
26965;SDS011;14522;52.068;4.414;2023-08-06T14:07:22;5.93;;;1.17;;
26965;SDS011;14522;52.068;4.414;2023-08-06T14:09:48;2.67;;;0.60;;
26965;SDS011;14522;52.068;4.414;2023-08-06T14:12:15;3.65;;;0.52;;
26965;SDS011;14522;52.068;4.414;2023-08-06T14:14:42;2.17;;;0.68;;
26965;SDS011;14522;52.068;4.414;2023-08-06T14:17:08;6.40;;;0.70;;
26965;SDS011;14522;52.068;4.414;2023-08-06T14:19:34;6.53;;;0.90;;
26965;SDS011;14522;52.068;4.414;2023-08-06T14:22:01;4.40;;;0.70;;
26965;SDS011;14522;52.068;4.414;2023-08-06T14:24:27;3.33;;;0.73;;
26965;SDS011;14522;52.068;4.414;2023-08-06T14:26:53;4.32;;;0.70;;
26965;SDS011;14522;52.068;4.414;2023-08-06T14:29:20;5.28;;;0.60;;
26965;SDS011;14522;52.068;4.414;2023-08-06T14:31:47;4.18;;;0.40;;
26965;SDS011;14522;52.068;4.414;2023-08-06T14:34:13;5.68;;;0.63;;
26965;SDS011;14522;52.068;4.414;2023-08-06T14:36:39;5.72;;;0.88;;
26965;SDS011;14522;52.068;4.414;2023-08-06T14:39:06;5.18;;;0.63;;
26965;SDS011;14522;52.068;4.414;2023-08-06T14:41:32;5.13;;;0.68;;
26965;SDS011;14522;52.068;4.414;2023-08-06T14:43:59;5.15;;;0.75;;
26965;SDS011;14522;52.068;4.414;2023-08-06T14:46:25;3.70;;;0.80;;
26965;SDS011;14522;52.068;4.414;2023-08-06T14:48:52;4.35;;;0.80;;
26965;SDS011;14522;52.068;4.414;2023-08-06T14:51:18;6.22;;;0.63;;
26965;SDS011;14522;52.068;4.414;2023-08-06T14:53:46;5.00;;;0.85;;
26965;SDS011;14522;52.068;4.414;2023-08-06T14:56:13;4.65;;;1.10;;
26965;SDS011;14522;52.068;4.414;2023-08-06T14:58:39;8.52;;;1.15;;
26965;SDS011;14522;52.068;4.414;2023-08-06T15:01:05;4.32;;;0.85;;